sensor_id;sensor_type;location;lat;lon;timestamp;P1;durP1;ratioP1;P2;durP2;ratioP2
54831;SDS011;40730;53.068;6.572;2023-04-25T00:02:00;16.40;;;2.10;;
54831;SDS011;40730;53.068;6.572;2023-04-25T00:04:26;15.43;;;2.95;;
54831;SDS011;40730;53.068;6.572;2023-04-25T00:06:53;16.35;;;2.03;;
54831;SDS011;40730;53.068;6.572;2023-04-25T00:09:19;16.77;;;1.85;;
54831;SDS011;40730;53.068;6.572;2023-04-25T00:11:44;22.45;;;2.58;;
54831;SDS011;40730;53.068;6.572;2023-04-25T00:14:10;16.38;;;2.60;;
54831;SDS011;40730;53.068;6.572;2023-04-25T00:16:36;12.93;;;1.92;;
54831;SDS011;40730;53.068;6.572;2023-04-25T00:19:01;18.42;;;2.85;;
54831;SDS011;40730;53.068;6.572;2023-04-25T00:21:28;21.88;;;2.33;;
54831;SDS011;40730;53.068;6.572;2023-04-25T00:23:54;18.58;;;2.25;;
54831;SDS011;40730;53.068;6.572;2023-04-25T00:26:20;22.70;;;2.13;;
54831;SDS011;40730;53.068;6.572;2023-04-25T00:28:46;18.55;;;2.33;;
54831;SDS011;40730;53.068;6.572;2023-04-25T00:31:12;17.50;;;2.00;;
54831;SDS011;40730;53.068;6.572;2023-04-25T00:33:38;13.10;;;2.22;;
54831;SDS011;40730;53.068;6.572;2023-04-25T00:36:04;21.00;;;2.20;;
54831;SDS011;40730;53.068;6.572;2023-04-25T00:38:30;20.30;;;2.35;;
54831;SDS011;40730;53.068;6.572;2023-04-25T00:40:55;16.27;;;2.17;;
54831;SDS011;40730;53.068;6.572;2023-04-25T00:43:22;17.77;;;2.17;;
54831;SDS011;40730;53.068;6.572;2023-04-25T00:45:50;18.77;;;2.17;;
54831;SDS011;40730;53.068;6.572;2023-04-25T00:48:18;24.58;;;2.65;;
54831;SDS011;40730;53.068;6.572;2023-04-25T00:50:50;17.98;;;3.10;;
54831;SDS011;40730;53.068;6.572;2023-04-25T00:53:22;18.92;;;2.60;;
54831;SDS011;40730;53.068;6.572;2023-04-25T00:55:49;19.75;;;1.90;;
54831;SDS011;40730;53.068;6.572;2023-04-25T00:58:19;19.25;;;2.25;;
54831;SDS011;40730;53.068;6.572;2023-04-25T01:00:46;17.60;;;3.60;;
54831;SDS011;40730;53.068;6.572;2023-04-25T01:03:16;17.98;;;1.90;;
54831;SDS011;40730;53.068;6.572;2023-04-25T01:05:45;15.57;;;1.80;;
54831;SDS011;40730;53.068;6.572;2023-04-25T01:08:12;14.45;;;2.03;;
54831;SDS011;40730;53.068;6.572;2023-04-25T01:10:38;15.50;;;1.42;;
54831;SDS011;40730;53.068;6.572;2023-04-25T01:13:03;11.70;;;1.33;;
54831;SDS011;40730;53.068;6.572;2023-04-25T01:15:29;11.68;;;1.30;;
54831;SDS011;40730;53.068;6.572;2023-04-25T01:17:55;12.30;;;1.60;;
54831;SDS011;40730;53.068;6.572;2023-04-25T01:20:21;14.75;;;1.60;;
54831;SDS011;40730;53.068;6.572;2023-04-25T01:22:48;14.02;;;1.27;;
54831;SDS011;40730;53.068;6.572;2023-04-25T01:25:14;13.32;;;1.23;;
54831;SDS011;40730;53.068;6.572;2023-04-25T01:27:40;8.48;;;1.27;;
54831;SDS011;40730;53.068;6.572;2023-04-25T01:30:06;15.57;;;1.67;;
54831;SDS011;40730;53.068;6.572;2023-04-25T01:32:33;21.00;;;2.00;;
54831;SDS011;40730;53.068;6.572;2023-04-25T01:35:04;11.50;;;2.25;;
54831;SDS011;40730;53.068;6.572;2023-04-25T01:37:34;14.15;;;1.33;;
54831;SDS011;40730;53.068;6.572;2023-04-25T01:40:04;15.32;;;1.52;;
54831;SDS011;40730;53.068;6.572;2023-04-25T01:42:31;12.20;;;1.20;;
54831;SDS011;40730;53.068;6.572;2023-04-25T01:44:58;11.45;;;1.30;;
54831;SDS011;40730;53.068;6.572;2023-04-25T01:47:24;9.98;;;1.33;;
54831;SDS011;40730;53.068;6.572;2023-04-25T01:49:49;16.05;;;1.63;;
54831;SDS011;40730;53.068;6.572;2023-04-25T01:52:15;12.57;;;1.88;;
54831;SDS011;40730;53.068;6.572;2023-04-25T01:54:41;18.55;;;1.67;;
54831;SDS011;40730;53.068;6.572;2023-04-25T01:57:09;13.00;;;1.27;;
54831;SDS011;40730;53.068;6.572;2023-04-25T01:59:35;13.98;;;1.27;;
54831;SDS011;40730;53.068;6.572;2023-04-25T02:02:01;16.38;;;1.55;;
54831;SDS011;40730;53.068;6.572;2023-04-25T02:04:29;15.88;;;1.55;;
54831;SDS011;40730;53.068;6.572;2023-04-25T02:06:55;13.07;;;1.23;;
54831;SDS011;40730;53.068;6.572;2023-04-25T02:09:20;10.68;;;1.17;;
54831;SDS011;40730;53.068;6.572;2023-04-25T02:11:46;11.70;;;0.85;;
54831;SDS011;40730;53.068;6.572;2023-04-25T02:14:12;9.20;;;1.02;;
54831;SDS011;40730;53.068;6.572;2023-04-25T02:16:37;19.20;;;1.10;;
54831;SDS011;40730;53.068;6.572;2023-04-25T02:19:03;8.98;;;1.40;;
54831;SDS011;40730;53.068;6.572;2023-04-25T02:21:29;18.13;;;0.85;;
54831;SDS011;40730;53.068;6.572;2023-04-25T02:23:55;15.13;;;1.23;;
54831;SDS011;40730;53.068;6.572;2023-04-25T02:26:21;9.93;;;1.10;;
54831;SDS011;40730;53.068;6.572;2023-04-25T02:28:48;12.13;;;1.10;;
54831;SDS011;40730;53.068;6.572;2023-04-25T02:31:15;10.32;;;1.05;;
54831;SDS011;40730;53.068;6.572;2023-04-25T02:33:41;13.15;;;1.67;;
54831;SDS011;40730;53.068;6.572;2023-04-25T02:36:07;14.38;;;1.73;;
54831;SDS011;40730;53.068;6.572;2023-04-25T02:38:32;11.65;;;1.42;;
54831;SDS011;40730;53.068;6.572;2023-04-25T02:40:58;14.77;;;2.85;;
54831;SDS011;40730;53.068;6.572;2023-04-25T02:43:24;12.88;;;1.10;;
54831;SDS011;40730;53.068;6.572;2023-04-25T02:45:49;12.25;;;1.38;;
54831;SDS011;40730;53.068;6.572;2023-04-25T02:48:15;15.98;;;2.17;;
54831;SDS011;40730;53.068;6.572;2023-04-25T02:50:40;13.48;;;0.73;;
54831;SDS011;40730;53.068;6.572;2023-04-25T02:53:06;17.60;;;1.15;;
54831;SDS011;40730;53.068;6.572;2023-04-25T02:55:31;17.95;;;2.38;;
54831;SDS011;40730;53.068;6.572;2023-04-25T02:57:57;14.63;;;1.17;;
54831;SDS011;40730;53.068;6.572;2023-04-25T03:00:23;9.70;;;1.60;;
54831;SDS011;40730;53.068;6.572;2023-04-25T03:02:48;17.17;;;1.48;;
54831;SDS011;40730;53.068;6.572;2023-04-25T03:05:14;16.25;;;1.52;;
54831;SDS011;40730;53.068;6.572;2023-04-25T03:07:39;15.75;;;1.00;;
54831;SDS011;40730;53.068;6.572;2023-04-25T03:10:08;13.75;;;0.95;;
54831;SDS011;40730;53.068;6.572;2023-04-25T03:12:34;17.13;;;1.73;;
54831;SDS011;40730;53.068;6.572;2023-04-25T03:14:59;13.05;;;1.08;;
54831;SDS011;40730;53.068;6.572;2023-04-25T03:17:25;14.63;;;1.13;;
54831;SDS011;40730;53.068;6.572;2023-04-25T03:19:51;13.35;;;0.85;;
54831;SDS011;40730;53.068;6.572;2023-04-25T03:22:16;12.45;;;1.48;;
54831;SDS011;40730;53.068;6.572;2023-04-25T03:24:42;13.75;;;0.60;;
54831;SDS011;40730;53.068;6.572;2023-04-25T03:27:08;14.40;;;0.80;;
54831;SDS011;40730;53.068;6.572;2023-04-25T03:29:34;9.90;;;0.95;;
54831;SDS011;40730;53.068;6.572;2023-04-25T03:31:59;9.93;;;0.85;;
54831;SDS011;40730;53.068;6.572;2023-04-25T03:34:25;12.32;;;0.98;;
54831;SDS011;40730;53.068;6.572;2023-04-25T03:36:51;12.43;;;0.93;;
54831;SDS011;40730;53.068;6.572;2023-04-25T03:39:16;5.95;;;0.68;;
54831;SDS011;40730;53.068;6.572;2023-04-25T03:41:42;16.20;;;0.93;;
54831;SDS011;40730;53.068;6.572;2023-04-25T03:44:08;9.80;;;0.90;;
54831;SDS011;40730;53.068;6.572;2023-04-25T03:46:33;10.57;;;0.88;;
54831;SDS011;40730;53.068;6.572;2023-04-25T03:48:59;8.55;;;0.77;;
54831;SDS011;40730;53.068;6.572;2023-04-25T03:51:24;9.90;;;1.00;;
54831;SDS011;40730;53.068;6.572;2023-04-25T03:53:51;10.55;;;0.95;;
54831;SDS011;40730;53.068;6.572;2023-04-25T03:56:17;9.98;;;0.70;;
54831;SDS011;40730;53.068;6.572;2023-04-25T03:58:42;6.50;;;0.77;;
54831;SDS011;40730;53.068;6.572;2023-04-25T04:01:08;8.25;;;0.63;;
54831;SDS011;40730;53.068;6.572;2023-04-25T04:03:34;9.95;;;0.70;;
54831;SDS011;40730;53.068;6.572;2023-04-25T04:06:01;8.43;;;1.05;;
54831;SDS011;40730;53.068;6.572;2023-04-25T04:08:28;9.55;;;0.60;;
54831;SDS011;40730;53.068;6.572;2023-04-25T04:10:54;14.20;;;0.80;;
54831;SDS011;40730;53.068;6.572;2023-04-25T04:13:20;12.27;;;0.70;;
54831;SDS011;40730;53.068;6.572;2023-04-25T04:15:46;7.22;;;0.70;;
54831;SDS011;40730;53.068;6.572;2023-04-25T04:18:11;13.15;;;1.73;;
54831;SDS011;40730;53.068;6.572;2023-04-25T04:20:37;5.70;;;0.55;;
54831;SDS011;40730;53.068;6.572;2023-04-25T04:23:03;11.98;;;0.90;;
54831;SDS011;40730;53.068;6.572;2023-04-25T04:25:28;22.52;;;2.92;;
54831;SDS011;40730;53.068;6.572;2023-04-25T04:27:55;7.65;;;0.75;;
54831;SDS011;40730;53.068;6.572;2023-04-25T04:30:21;10.85;;;0.73;;
54831;SDS011;40730;53.068;6.572;2023-04-25T04:32:49;14.35;;;0.60;;
54831;SDS011;40730;53.068;6.572;2023-04-25T04:35:15;7.15;;;0.50;;
54831;SDS011;40730;53.068;6.572;2023-04-25T04:37:40;11.52;;;0.90;;
54831;SDS011;40730;53.068;6.572;2023-04-25T04:40:06;14.40;;;2.05;;
54831;SDS011;40730;53.068;6.572;2023-04-25T04:42:32;16.67;;;0.82;;
54831;SDS011;40730;53.068;6.572;2023-04-25T04:44:58;12.18;;;0.75;;
54831;SDS011;40730;53.068;6.572;2023-04-25T04:47:26;10.32;;;0.70;;
54831;SDS011;40730;53.068;6.572;2023-04-25T04:49:56;8.85;;;1.35;;
54831;SDS011;40730;53.068;6.572;2023-04-25T04:52:22;14.27;;;0.77;;
54831;SDS011;40730;53.068;6.572;2023-04-25T04:54:47;7.80;;;0.43;;
54831;SDS011;40730;53.068;6.572;2023-04-25T04:57:13;9.40;;;0.82;;
54831;SDS011;40730;53.068;6.572;2023-04-25T04:59:40;11.10;;;1.13;;
54831;SDS011;40730;53.068;6.572;2023-04-25T05:02:05;12.00;;;0.80;;
54831;SDS011;40730;53.068;6.572;2023-04-25T05:04:31;8.55;;;0.47;;
54831;SDS011;40730;53.068;6.572;2023-04-25T05:06:56;8.38;;;1.10;;
54831;SDS011;40730;53.068;6.572;2023-04-25T05:09:22;8.80;;;0.57;;
54831;SDS011;40730;53.068;6.572;2023-04-25T05:11:50;10.18;;;0.80;;
54831;SDS011;40730;53.068;6.572;2023-04-25T05:14:16;9.43;;;0.55;;
54831;SDS011;40730;53.068;6.572;2023-04-25T05:16:42;9.50;;;0.80;;
54831;SDS011;40730;53.068;6.572;2023-04-25T05:19:08;10.68;;;0.65;;
54831;SDS011;40730;53.068;6.572;2023-04-25T05:21:34;16.30;;;0.85;;
54831;SDS011;40730;53.068;6.572;2023-04-25T05:24:00;10.88;;;0.57;;
54831;SDS011;40730;53.068;6.572;2023-04-25T05:26:26;12.60;;;1.30;;
54831;SDS011;40730;53.068;6.572;2023-04-25T05:28:56;3.97;;;0.40;;
54831;SDS011;40730;53.068;6.572;2023-04-25T05:31:22;10.25;;;0.60;;
54831;SDS011;40730;53.068;6.572;2023-04-25T05:33:47;10.85;;;0.63;;
54831;SDS011;40730;53.068;6.572;2023-04-25T05:36:13;10.35;;;1.85;;
54831;SDS011;40730;53.068;6.572;2023-04-25T05:38:38;12.27;;;0.60;;
54831;SDS011;40730;53.068;6.572;2023-04-25T05:41:04;7.65;;;0.55;;
54831;SDS011;40730;53.068;6.572;2023-04-25T05:43:30;10.80;;;1.00;;
54831;SDS011;40730;53.068;6.572;2023-04-25T05:45:56;7.93;;;0.40;;
54831;SDS011;40730;53.068;6.572;2023-04-25T05:48:21;10.25;;;0.50;;
54831;SDS011;40730;53.068;6.572;2023-04-25T05:50:47;8.38;;;0.57;;
54831;SDS011;40730;53.068;6.572;2023-04-25T05:53:12;8.57;;;0.93;;
54831;SDS011;40730;53.068;6.572;2023-04-25T05:55:38;8.75;;;0.80;;
54831;SDS011;40730;53.068;6.572;2023-04-25T05:58:04;7.53;;;0.65;;
54831;SDS011;40730;53.068;6.572;2023-04-25T06:00:32;5.80;;;0.60;;
54831;SDS011;40730;53.068;6.572;2023-04-25T06:02:57;9.88;;;1.33;;
54831;SDS011;40730;53.068;6.572;2023-04-25T06:05:23;12.35;;;1.15;;
54831;SDS011;40730;53.068;6.572;2023-04-25T06:07:48;11.35;;;1.20;;
54831;SDS011;40730;53.068;6.572;2023-04-25T06:10:14;17.50;;;1.45;;
54831;SDS011;40730;53.068;6.572;2023-04-25T06:12:40;17.00;;;1.05;;
54831;SDS011;40730;53.068;6.572;2023-04-25T06:15:06;9.07;;;0.65;;
54831;SDS011;40730;53.068;6.572;2023-04-25T06:17:32;11.70;;;1.20;;
54831;SDS011;40730;53.068;6.572;2023-04-25T06:19:58;8.65;;;0.68;;
54831;SDS011;40730;53.068;6.572;2023-04-25T06:22:24;9.85;;;0.65;;
54831;SDS011;40730;53.068;6.572;2023-04-25T06:24:49;13.32;;;1.02;;
54831;SDS011;40730;53.068;6.572;2023-04-25T06:27:15;8.13;;;0.80;;
54831;SDS011;40730;53.068;6.572;2023-04-25T06:29:40;7.65;;;0.50;;
54831;SDS011;40730;53.068;6.572;2023-04-25T06:32:06;11.73;;;0.60;;
54831;SDS011;40730;53.068;6.572;2023-04-25T06:34:31;9.43;;;0.57;;
54831;SDS011;40730;53.068;6.572;2023-04-25T06:36:57;8.73;;;0.90;;
54831;SDS011;40730;53.068;6.572;2023-04-25T06:39:23;6.60;;;0.60;;
54831;SDS011;40730;53.068;6.572;2023-04-25T06:41:49;10.45;;;0.50;;
54831;SDS011;40730;53.068;6.572;2023-04-25T06:44:15;10.20;;;0.77;;
54831;SDS011;40730;53.068;6.572;2023-04-25T06:46:40;8.32;;;0.95;;
54831;SDS011;40730;53.068;6.572;2023-04-25T06:49:06;12.93;;;0.95;;
54831;SDS011;40730;53.068;6.572;2023-04-25T06:51:32;8.82;;;1.15;;
54831;SDS011;40730;53.068;6.572;2023-04-25T06:53:57;8.20;;;0.47;;
54831;SDS011;40730;53.068;6.572;2023-04-25T06:56:24;5.78;;;0.40;;
54831;SDS011;40730;53.068;6.572;2023-04-25T06:58:50;6.10;;;0.50;;
54831;SDS011;40730;53.068;6.572;2023-04-25T07:01:15;6.30;;;0.50;;
54831;SDS011;40730;53.068;6.572;2023-04-25T07:03:41;13.02;;;0.68;;
54831;SDS011;40730;53.068;6.572;2023-04-25T07:06:06;6.63;;;0.30;;
54831;SDS011;40730;53.068;6.572;2023-04-25T07:08:32;6.40;;;0.40;;
54831;SDS011;40730;53.068;6.572;2023-04-25T07:10:58;5.53;;;0.35;;
54831;SDS011;40730;53.068;6.572;2023-04-25T07:13:23;5.40;;;0.20;;
54831;SDS011;40730;53.068;6.572;2023-04-25T07:15:49;11.02;;;1.50;;
54831;SDS011;40730;53.068;6.572;2023-04-25T07:18:14;12.27;;;0.50;;
54831;SDS011;40730;53.068;6.572;2023-04-25T07:20:41;9.48;;;0.70;;
54831;SDS011;40730;53.068;6.572;2023-04-25T07:23:06;9.10;;;0.60;;
54831;SDS011;40730;53.068;6.572;2023-04-25T07:25:32;5.15;;;0.20;;
54831;SDS011;40730;53.068;6.572;2023-04-25T07:27:57;4.47;;;0.30;;
54831;SDS011;40730;53.068;6.572;2023-04-25T07:30:23;5.82;;;0.43;;
54831;SDS011;40730;53.068;6.572;2023-04-25T07:32:49;6.80;;;0.30;;
54831;SDS011;40730;53.068;6.572;2023-04-25T07:35:15;5.68;;;0.75;;
54831;SDS011;40730;53.068;6.572;2023-04-25T07:37:41;4.95;;;0.52;;
54831;SDS011;40730;53.068;6.572;2023-04-25T07:40:07;4.35;;;0.20;;
54831;SDS011;40730;53.068;6.572;2023-04-25T07:42:34;5.80;;;0.30;;
54831;SDS011;40730;53.068;6.572;2023-04-25T07:45:00;3.78;;;0.30;;
54831;SDS011;40730;53.068;6.572;2023-04-25T07:47:26;3.55;;;0.40;;
54831;SDS011;40730;53.068;6.572;2023-04-25T07:49:52;6.05;;;0.20;;
54831;SDS011;40730;53.068;6.572;2023-04-25T07:52:17;12.88;;;1.20;;
54831;SDS011;40730;53.068;6.572;2023-04-25T07:54:43;6.03;;;0.50;;
54831;SDS011;40730;53.068;6.572;2023-04-25T07:57:09;9.77;;;0.68;;
54831;SDS011;40730;53.068;6.572;2023-04-25T07:59:34;7.25;;;0.30;;
54831;SDS011;40730;53.068;6.572;2023-04-25T08:02:00;5.78;;;0.50;;
54831;SDS011;40730;53.068;6.572;2023-04-25T08:04:27;6.28;;;0.30;;
54831;SDS011;40730;53.068;6.572;2023-04-25T08:06:53;10.45;;;0.57;;
54831;SDS011;40730;53.068;6.572;2023-04-25T08:09:19;3.75;;;0.60;;
54831;SDS011;40730;53.068;6.572;2023-04-25T08:11:45;8.38;;;0.50;;
54831;SDS011;40730;53.068;6.572;2023-04-25T08:14:11;6.30;;;1.40;;
54831;SDS011;40730;53.068;6.572;2023-04-25T08:16:38;4.70;;;0.30;;
54831;SDS011;40730;53.068;6.572;2023-04-25T08:19:03;4.43;;;0.43;;
54831;SDS011;40730;53.068;6.572;2023-04-25T08:21:30;3.85;;;0.22;;
54831;SDS011;40730;53.068;6.572;2023-04-25T08:23:56;6.80;;;0.75;;
54831;SDS011;40730;53.068;6.572;2023-04-25T08:26:23;7.68;;;0.30;;
54831;SDS011;40730;53.068;6.572;2023-04-25T08:28:49;5.85;;;0.40;;
54831;SDS011;40730;53.068;6.572;2023-04-25T08:31:15;7.45;;;0.30;;
54831;SDS011;40730;53.068;6.572;2023-04-25T08:33:41;3.63;;;0.13;;
54831;SDS011;40730;53.068;6.572;2023-04-25T08:36:07;2.85;;;0.10;;
54831;SDS011;40730;53.068;6.572;2023-04-25T08:38:36;1.73;;;0.10;;
54831;SDS011;40730;53.068;6.572;2023-04-25T08:41:02;2.80;;;0.20;;
54831;SDS011;40730;53.068;6.572;2023-04-25T08:43:28;2.42;;;0.10;;
54831;SDS011;40730;53.068;6.572;2023-04-25T08:45:59;1.15;;;0.10;;
54831;SDS011;40730;53.068;6.572;2023-04-25T08:48:29;1.13;;;0.15;;
54831;SDS011;40730;53.068;6.572;2023-04-25T08:50:58;2.10;;;0.13;;
54831;SDS011;40730;53.068;6.572;2023-04-25T08:53:26;3.40;;;0.10;;
54831;SDS011;40730;53.068;6.572;2023-04-25T08:55:57;2.58;;;0.30;;
54831;SDS011;40730;53.068;6.572;2023-04-25T08:58:24;2.33;;;0.17;;
54831;SDS011;40730;53.068;6.572;2023-04-25T09:00:51;4.03;;;0.20;;
54831;SDS011;40730;53.068;6.572;2023-04-25T09:03:17;3.50;;;0.28;;
54831;SDS011;40730;53.068;6.572;2023-04-25T09:05:43;3.45;;;0.32;;
54831;SDS011;40730;53.068;6.572;2023-04-25T09:08:09;2.55;;;0.17;;
54831;SDS011;40730;53.068;6.572;2023-04-25T09:10:35;1.63;;;0.20;;
54831;SDS011;40730;53.068;6.572;2023-04-25T09:13:06;2.38;;;0.20;;
54831;SDS011;40730;53.068;6.572;2023-04-25T09:18:12;4.22;;;0.43;;
54831;SDS011;40730;53.068;6.572;2023-04-25T09:20:43;2.00;;;0.55;;
54831;SDS011;40730;53.068;6.572;2023-04-25T09:23:09;2.38;;;0.13;;
54831;SDS011;40730;53.068;6.572;2023-04-25T09:25:35;4.35;;;0.10;;
54831;SDS011;40730;53.068;6.572;2023-04-25T09:28:04;2.50;;;0.30;;
54831;SDS011;40730;53.068;6.572;2023-04-25T09:30:31;4.07;;;0.30;;
54831;SDS011;40730;53.068;6.572;2023-04-25T09:33:06;3.72;;;0.17;;
54831;SDS011;40730;53.068;6.572;2023-04-25T09:35:36;4.50;;;0.20;;
54831;SDS011;40730;53.068;6.572;2023-04-25T09:38:10;3.05;;;0.20;;
54831;SDS011;40730;53.068;6.572;2023-04-25T09:40:41;7.07;;;0.30;;
54831;SDS011;40730;53.068;6.572;2023-04-25T09:43:18;2.75;;;0.38;;
54831;SDS011;40730;53.068;6.572;2023-04-25T09:45:47;8.23;;;0.45;;
54831;SDS011;40730;53.068;6.572;2023-04-25T09:48:18;5.70;;;0.20;;
54831;SDS011;40730;53.068;6.572;2023-04-25T09:51:09;5.32;;;0.32;;
54831;SDS011;40730;53.068;6.572;2023-04-25T09:53:40;6.00;;;0.30;;
54831;SDS011;40730;53.068;6.572;2023-04-25T09:56:07;5.15;;;0.52;;
54831;SDS011;40730;53.068;6.572;2023-04-25T09:58:36;10.50;;;2.15;;
54831;SDS011;40730;53.068;6.572;2023-04-25T10:01:07;4.07;;;0.40;;
54831;SDS011;40730;53.068;6.572;2023-04-25T10:03:37;5.40;;;0.47;;
54831;SDS011;40730;53.068;6.572;2023-04-25T10:06:08;6.32;;;0.55;;
54831;SDS011;40730;53.068;6.572;2023-04-25T10:08:39;11.85;;;0.77;;
54831;SDS011;40730;53.068;6.572;2023-04-25T10:11:07;8.75;;;0.45;;
54831;SDS011;40730;53.068;6.572;2023-04-25T10:13:34;12.52;;;0.63;;
54831;SDS011;40730;53.068;6.572;2023-04-25T10:16:01;9.95;;;0.93;;
54831;SDS011;40730;53.068;6.572;2023-04-25T10:18:29;4.03;;;0.20;;
54831;SDS011;40730;53.068;6.572;2023-04-25T10:20:56;4.13;;;0.30;;
54831;SDS011;40730;53.068;6.572;2023-04-25T10:23:24;8.18;;;0.30;;
54831;SDS011;40730;53.068;6.572;2023-04-25T10:25:51;6.65;;;0.40;;
54831;SDS011;40730;53.068;6.572;2023-04-25T10:28:17;5.47;;;0.40;;
54831;SDS011;40730;53.068;6.572;2023-04-25T10:30:57;3.58;;;0.55;;
54831;SDS011;40730;53.068;6.572;2023-04-25T10:33:35;7.93;;;0.60;;
54831;SDS011;40730;53.068;6.572;2023-04-25T10:36:12;6.30;;;0.35;;
54831;SDS011;40730;53.068;6.572;2023-04-25T10:38:46;3.92;;;0.30;;
54831;SDS011;40730;53.068;6.572;2023-04-25T10:41:13;5.05;;;0.40;;
54831;SDS011;40730;53.068;6.572;2023-04-25T10:43:40;5.78;;;0.35;;
54831;SDS011;40730;53.068;6.572;2023-04-25T10:46:13;7.38;;;0.32;;
54831;SDS011;40730;53.068;6.572;2023-04-25T10:48:49;5.68;;;0.20;;
54831;SDS011;40730;53.068;6.572;2023-04-25T10:51:28;4.93;;;1.15;;
54831;SDS011;40730;53.068;6.572;2023-04-25T10:54:03;3.05;;;0.30;;
54831;SDS011;40730;53.068;6.572;2023-04-25T10:56:31;6.10;;;0.20;;
54831;SDS011;40730;53.068;6.572;2023-04-25T10:59:09;5.45;;;0.30;;
54831;SDS011;40730;53.068;6.572;2023-04-25T11:01:46;5.40;;;0.20;;
54831;SDS011;40730;53.068;6.572;2023-04-25T11:04:24;6.28;;;0.30;;
54831;SDS011;40730;53.068;6.572;2023-04-25T11:11:57;8.43;;;0.40;;
54831;SDS011;40730;53.068;6.572;2023-04-25T11:14:25;7.60;;;0.43;;
54831;SDS011;40730;53.068;6.572;2023-04-25T11:16:55;10.23;;;0.40;;
54831;SDS011;40730;53.068;6.572;2023-04-25T11:19:23;7.53;;;0.60;;
54831;SDS011;40730;53.068;6.572;2023-04-25T11:21:49;6.75;;;0.65;;
54831;SDS011;40730;53.068;6.572;2023-04-25T11:24:16;9.95;;;0.43;;
54831;SDS011;40730;53.068;6.572;2023-04-25T11:26:42;8.77;;;0.60;;
54831;SDS011;40730;53.068;6.572;2023-04-25T11:29:11;8.25;;;0.75;;
54831;SDS011;40730;53.068;6.572;2023-04-25T11:31:37;7.75;;;0.40;;
54831;SDS011;40730;53.068;6.572;2023-04-25T11:34:02;9.82;;;0.40;;
54831;SDS011;40730;53.068;6.572;2023-04-25T11:36:28;6.75;;;0.32;;
54831;SDS011;40730;53.068;6.572;2023-04-25T11:38:54;4.55;;;0.40;;
54831;SDS011;40730;53.068;6.572;2023-04-25T11:41:20;4.32;;;0.20;;
54831;SDS011;40730;53.068;6.572;2023-04-25T11:43:47;6.07;;;0.30;;
54831;SDS011;40730;53.068;6.572;2023-04-25T11:46:13;4.00;;;0.28;;
54831;SDS011;40730;53.068;6.572;2023-04-25T11:48:42;5.40;;;0.40;;
54831;SDS011;40730;53.068;6.572;2023-04-25T11:51:08;5.18;;;0.35;;
54831;SDS011;40730;53.068;6.572;2023-04-25T11:53:34;7.15;;;0.73;;
54831;SDS011;40730;53.068;6.572;2023-04-25T11:56:00;7.40;;;0.20;;
54831;SDS011;40730;53.068;6.572;2023-04-25T11:58:26;6.10;;;0.40;;
54831;SDS011;40730;53.068;6.572;2023-04-25T12:00:52;5.75;;;0.30;;
54831;SDS011;40730;53.068;6.572;2023-04-25T12:03:19;2.85;;;0.20;;
54831;SDS011;40730;53.068;6.572;2023-04-25T12:05:45;2.00;;;0.10;;
54831;SDS011;40730;53.068;6.572;2023-04-25T12:08:11;2.17;;;0.20;;
54831;SDS011;40730;53.068;6.572;2023-04-25T12:10:37;4.68;;;0.20;;
54831;SDS011;40730;53.068;6.572;2023-04-25T12:13:20;3.10;;;0.40;;
54831;SDS011;40730;53.068;6.572;2023-04-25T12:15:47;5.50;;;0.30;;
54831;SDS011;40730;53.068;6.572;2023-04-25T12:18:13;5.45;;;0.20;;
54831;SDS011;40730;53.068;6.572;2023-04-25T12:20:39;4.38;;;0.20;;
54831;SDS011;40730;53.068;6.572;2023-04-25T12:23:06;3.92;;;0.20;;
54831;SDS011;40730;53.068;6.572;2023-04-25T12:28:13;4.43;;;0.30;;
54831;SDS011;40730;53.068;6.572;2023-04-25T12:33:29;5.55;;;0.20;;
54831;SDS011;40730;53.068;6.572;2023-04-25T12:35:57;5.05;;;0.30;;
54831;SDS011;40730;53.068;6.572;2023-04-25T12:40:50;4.35;;;0.28;;
54831;SDS011;40730;53.068;6.572;2023-04-25T12:43:16;9.88;;;0.20;;
54831;SDS011;40730;53.068;6.572;2023-04-25T12:45:43;4.03;;;0.73;;
54831;SDS011;40730;53.068;6.572;2023-04-25T12:48:18;7.13;;;0.20;;
54831;SDS011;40730;53.068;6.572;2023-04-25T12:50:45;6.57;;;0.35;;
54831;SDS011;40730;53.068;6.572;2023-04-25T12:53:23;8.57;;;0.30;;
54831;SDS011;40730;53.068;6.572;2023-04-25T12:55:49;5.55;;;0.35;;
54831;SDS011;40730;53.068;6.572;2023-04-25T12:58:16;4.03;;;0.35;;
54831;SDS011;40730;53.068;6.572;2023-04-25T13:00:43;7.05;;;0.40;;
54831;SDS011;40730;53.068;6.572;2023-04-25T13:03:09;7.57;;;0.43;;
54831;SDS011;40730;53.068;6.572;2023-04-25T13:05:36;9.95;;;0.50;;
54831;SDS011;40730;53.068;6.572;2023-04-25T13:08:02;11.10;;;0.70;;
54831;SDS011;40730;53.068;6.572;2023-04-25T13:10:27;7.30;;;0.30;;
54831;SDS011;40730;53.068;6.572;2023-04-25T13:12:54;8.93;;;0.60;;
54831;SDS011;40730;53.068;6.572;2023-04-25T13:15:20;11.48;;;0.50;;
54831;SDS011;40730;53.068;6.572;2023-04-25T13:17:45;4.72;;;0.30;;
54831;SDS011;40730;53.068;6.572;2023-04-25T13:20:11;7.13;;;0.80;;
54831;SDS011;40730;53.068;6.572;2023-04-25T13:22:38;9.07;;;0.40;;
54831;SDS011;40730;53.068;6.572;2023-04-25T13:25:05;3.63;;;0.30;;
54831;SDS011;40730;53.068;6.572;2023-04-25T13:27:32;3.10;;;0.20;;
54831;SDS011;40730;53.068;6.572;2023-04-25T13:30:02;4.78;;;0.68;;
54831;SDS011;40730;53.068;6.572;2023-04-25T13:32:41;5.75;;;0.63;;
54831;SDS011;40730;53.068;6.572;2023-04-25T13:35:08;3.70;;;0.13;;
54831;SDS011;40730;53.068;6.572;2023-04-25T13:37:35;6.68;;;0.30;;
54831;SDS011;40730;53.068;6.572;2023-04-25T13:40:01;6.05;;;0.60;;
54831;SDS011;40730;53.068;6.572;2023-04-25T13:42:30;12.25;;;0.43;;
54831;SDS011;40730;53.068;6.572;2023-04-25T13:44:55;11.10;;;0.60;;
54831;SDS011;40730;53.068;6.572;2023-04-25T13:47:21;4.72;;;0.57;;
54831;SDS011;40730;53.068;6.572;2023-04-25T13:49:48;6.22;;;0.45;;
54831;SDS011;40730;53.068;6.572;2023-04-25T13:52:14;6.65;;;0.85;;
54831;SDS011;40730;53.068;6.572;2023-04-25T13:54:41;8.55;;;0.57;;
54831;SDS011;40730;53.068;6.572;2023-04-25T13:57:06;4.28;;;0.40;;
54831;SDS011;40730;53.068;6.572;2023-04-25T13:59:32;7.60;;;1.55;;
54831;SDS011;40730;53.068;6.572;2023-04-25T14:01:58;5.47;;;0.38;;
54831;SDS011;40730;53.068;6.572;2023-04-25T14:04:24;5.35;;;0.60;;
54831;SDS011;40730;53.068;6.572;2023-04-25T14:06:50;7.25;;;0.45;;
54831;SDS011;40730;53.068;6.572;2023-04-25T14:09:16;5.00;;;0.43;;
54831;SDS011;40730;53.068;6.572;2023-04-25T14:11:42;9.18;;;0.60;;
54831;SDS011;40730;53.068;6.572;2023-04-25T14:14:07;6.50;;;0.35;;
54831;SDS011;40730;53.068;6.572;2023-04-25T14:16:34;4.30;;;0.43;;
54831;SDS011;40730;53.068;6.572;2023-04-25T14:19:00;5.88;;;0.60;;
54831;SDS011;40730;53.068;6.572;2023-04-25T14:21:26;5.03;;;0.40;;
54831;SDS011;40730;53.068;6.572;2023-04-25T14:23:53;4.20;;;0.30;;
54831;SDS011;40730;53.068;6.572;2023-04-25T14:26:19;7.82;;;0.50;;
54831;SDS011;40730;53.068;6.572;2023-04-25T14:28:44;10.82;;;0.30;;
54831;SDS011;40730;53.068;6.572;2023-04-25T14:31:10;5.88;;;0.40;;
54831;SDS011;40730;53.068;6.572;2023-04-25T14:33:35;7.53;;;0.30;;
54831;SDS011;40730;53.068;6.572;2023-04-25T14:36:04;7.50;;;0.40;;
54831;SDS011;40730;53.068;6.572;2023-04-25T14:38:30;3.65;;;0.30;;
54831;SDS011;40730;53.068;6.572;2023-04-25T14:40:56;7.30;;;0.50;;
54831;SDS011;40730;53.068;6.572;2023-04-25T14:43:21;7.13;;;1.05;;
54831;SDS011;40730;53.068;6.572;2023-04-25T14:45:47;8.50;;;0.35;;
54831;SDS011;40730;53.068;6.572;2023-04-25T14:48:13;4.88;;;0.35;;
54831;SDS011;40730;53.068;6.572;2023-04-25T14:50:38;6.07;;;0.40;;
54831;SDS011;40730;53.068;6.572;2023-04-25T14:53:04;7.25;;;0.30;;
54831;SDS011;40730;53.068;6.572;2023-04-25T14:55:30;5.47;;;0.60;;
54831;SDS011;40730;53.068;6.572;2023-04-25T14:57:56;2.95;;;0.30;;